createdAt,value
2018-10-02T00:00:11.884Z,16.23
2018-10-02T00:02:40.290Z,12.87
2018-10-02T00:05:08.698Z,9.30
2018-10-02T00:07:37.099Z,13.30
2018-10-02T00:10:05.651Z,6.20
2018-10-02T00:12:39.320Z,13.47
2018-10-02T00:15:07.985Z,11.13
2018-10-02T00:17:36.363Z,9.83
2018-10-02T00:20:04.819Z,11.33
2018-10-02T00:22:33.208Z,12.87
2018-10-02T00:25:01.612Z,13.80
2018-10-02T00:27:29.999Z,12.67
2018-10-02T00:29:58.408Z,14.83
2018-10-02T00:32:27.092Z,10.60
2018-10-02T00:34:55.466Z,9.40
2018-10-02T00:37:23.893Z,12.77
2018-10-02T00:39:52.346Z,9.87
2018-10-02T00:42:20.780Z,11.17
2018-10-02T00:44:49.197Z,10.20
2018-10-02T00:47:17.583Z,12.10
2018-10-02T00:49:47.020Z,10.67
2018-10-02T00:52:15.455Z,9.10
2018-10-02T00:54:43.871Z,16.03
2018-10-02T00:57:12.296Z,13.03
2018-10-02T00:59:40.751Z,8.20
2018-10-02T01:02:09.177Z,15.47
2018-10-02T01:04:37.594Z,10.53
2018-10-02T01:07:06.115Z,6.47
2018-10-02T01:09:34.556Z,8.60
2018-10-02T01:12:03.019Z,9.70
2018-10-02T01:14:31.424Z,9.60
2018-10-02T01:16:59.847Z,7.97
2018-10-02T01:19:28.236Z,14.60
2018-10-02T01:21:56.672Z,13.97
2018-10-02T01:24:25.108Z,16.63
2018-10-02T01:26:53.496Z,17.70
2018-10-02T01:29:21.918Z,13.43
2018-10-02T01:31:50.373Z,7.07
2018-10-02T01:34:18.878Z,6.37
2018-10-02T01:36:47.249Z,13.07
2018-10-02T01:39:15.634Z,9.37
2018-10-02T01:41:44.080Z,6.90
2018-10-02T01:44:12.453Z,11.20
2018-10-02T01:46:40.867Z,11.70
2018-10-02T01:49:09.305Z,11.80
2018-10-02T01:51:37.672Z,12.57
2018-10-02T01:54:06.129Z,13.20
2018-10-02T01:56:34.547Z,9.50
2018-10-02T01:59:02.945Z,8.37
2018-10-02T02:01:31.334Z,12.80
2018-10-02T02:03:59.752Z,9.63
2018-10-02T02:06:28.156Z,8.23
2018-10-02T02:08:56.582Z,10.90
2018-10-02T02:11:24.990Z,12.77
2018-10-02T02:13:53.364Z,13.73
2018-10-02T02:16:21.772Z,13.27
2018-10-02T02:18:50.239Z,11.80
2018-10-02T02:21:18.695Z,20.10
2018-10-02T02:23:47.088Z,8.33
2018-10-02T02:26:15.508Z,10.27
2018-10-02T02:28:43.900Z,13.80
2018-10-02T02:31:12.291Z,18.57
2018-10-02T02:33:40.741Z,12.13
2018-10-02T02:36:09.165Z,20.10
2018-10-02T02:38:37.589Z,15.87
2018-10-02T02:41:06.137Z,13.27
2018-10-02T02:43:34.542Z,11.03
2018-10-02T02:46:03.123Z,12.83
2018-10-02T02:49:35.535Z,10.43
2018-10-02T02:52:04.011Z,8.90
2018-10-02T02:54:32.432Z,11.10
2018-10-02T02:57:00.849Z,9.13
2018-10-02T02:59:29.290Z,13.50
2018-10-02T03:01:57.687Z,10.00
2018-10-02T03:04:26.138Z,11.87
2018-10-02T03:06:54.554Z,12.20
2018-10-02T03:09:23.024Z,10.80
2018-10-02T03:11:51.459Z,9.77
2018-10-02T03:14:19.835Z,6.13
2018-10-02T03:16:48.300Z,10.33
2018-10-02T03:19:16.688Z,9.70
2018-10-02T03:21:45.128Z,15.20
2018-10-02T03:24:13.535Z,17.43
2018-10-02T03:26:41.897Z,9.97
2018-10-02T03:29:10.318Z,9.07
2018-10-02T03:31:38.796Z,7.63
2018-10-02T03:34:07.184Z,19.17
2018-10-02T03:36:35.605Z,10.37
2018-10-02T03:39:05.036Z,16.90
2018-10-02T03:41:33.469Z,11.80
2018-10-02T03:44:01.872Z,12.17
2018-10-02T03:46:30.281Z,15.60
2018-10-02T03:48:58.744Z,9.67
2018-10-02T03:51:27.141Z,9.10
2018-10-02T03:53:55.582Z,14.93
2018-10-02T03:56:24.821Z,17.00
2018-10-02T03:58:53.348Z,13.73
2018-10-02T04:01:21.777Z,10.87
2018-10-02T04:03:50.198Z,14.20
2018-10-02T04:06:18.652Z,15.87
2018-10-02T04:08:47.025Z,17.07
2018-10-02T04:11:15.617Z,16.37
2018-10-02T04:13:44.026Z,13.17
2018-10-02T04:16:12.528Z,10.30
2018-10-02T04:18:40.913Z,14.00
2018-10-02T04:21:09.362Z,16.30
2018-10-02T04:23:37.757Z,13.07
2018-10-02T04:26:06.185Z,21.90
2018-10-02T04:28:34.576Z,15.10
2018-10-02T04:31:03.015Z,13.77
2018-10-02T04:33:31.461Z,9.87
2018-10-02T04:35:59.851Z,12.47
2018-10-02T04:38:28.571Z,12.00
2018-10-02T04:40:57.048Z,15.07
2018-10-02T04:43:25.436Z,8.97
2018-10-02T04:45:53.999Z,15.00
2018-10-02T04:48:22.394Z,18.20
2018-10-02T04:50:50.844Z,11.13
2018-10-02T04:53:19.268Z,8.53
2018-10-02T04:55:47.753Z,14.50
2018-10-02T04:58:16.080Z,10.53
2018-10-02T05:00:44.535Z,13.20
2018-10-02T05:03:12.970Z,12.50
2018-10-02T05:05:41.420Z,17.70
2018-10-02T05:08:10.577Z,11.53
2018-10-02T05:10:39.011Z,15.13
2018-10-02T05:13:08.389Z,18.23
2018-10-02T05:15:36.845Z,7.87
2018-10-02T05:18:06.969Z,14.30
2018-10-02T05:20:35.395Z,19.80
2018-10-02T05:23:03.852Z,13.10
2018-10-02T05:25:32.278Z,9.03
2018-10-02T05:28:00.691Z,22.13
2018-10-02T05:30:29.112Z,11.80
2018-10-02T05:32:57.758Z,9.93
2018-10-02T05:35:26.195Z,11.80
2018-10-02T05:37:54.623Z,4.47
2018-10-02T05:40:23.029Z,10.97
2018-10-02T05:42:51.503Z,11.57
2018-10-02T05:45:19.944Z,11.43
2018-10-02T05:47:48.355Z,12.50
2018-10-02T05:50:16.899Z,13.43
2018-10-02T05:52:46.151Z,12.43
2018-10-02T05:55:14.645Z,16.33
2018-10-02T05:57:43.119Z,15.20
2018-10-02T06:00:11.638Z,18.30
2018-10-02T06:02:40.099Z,7.70
2018-10-02T06:05:09.236Z,6.63
2018-10-02T06:07:37.658Z,14.53
2018-10-02T06:10:07.490Z,13.43
2018-10-02T06:12:35.940Z,10.63
2018-10-02T06:15:04.406Z,21.50
2018-10-02T06:17:32.818Z,15.63
2018-10-02T06:20:01.206Z,9.90
2018-10-02T06:22:29.743Z,10.93
2018-10-02T06:24:58.183Z,17.30
2018-10-02T06:27:26.640Z,13.27
2018-10-02T06:29:55.025Z,13.37
2018-10-02T06:32:23.542Z,11.57
2018-10-02T06:34:51.991Z,16.87
2018-10-02T06:37:20.406Z,10.90
2018-10-02T06:39:48.796Z,11.90
2018-10-02T06:42:17.256Z,11.17
2018-10-02T06:44:45.780Z,11.57
2018-10-02T06:47:14.090Z,10.23
2018-10-02T06:49:42.506Z,7.93
2018-10-02T06:52:11.036Z,20.70
2018-10-02T06:54:39.411Z,11.90
2018-10-02T06:57:07.893Z,15.50
2018-10-02T06:59:36.290Z,9.80
2018-10-02T07:02:04.819Z,10.40
2018-10-02T07:04:33.199Z,14.77
2018-10-02T07:07:01.593Z,9.40
2018-10-02T07:09:30.021Z,11.80
2018-10-02T07:11:58.469Z,6.83
2018-10-02T07:14:26.916Z,7.93
2018-10-02T07:16:55.399Z,14.00
2018-10-02T07:19:23.884Z,14.47
2018-10-02T07:21:52.333Z,12.00
2018-10-02T07:24:20.721Z,25.93
2018-10-02T07:26:49.357Z,15.50
2018-10-02T07:29:17.700Z,16.33
2018-10-02T07:31:46.099Z,14.03
2018-10-02T07:34:14.620Z,9.70
2018-10-02T07:36:43.133Z,13.93
2018-10-02T07:39:11.585Z,7.60
2018-10-02T07:41:40.086Z,9.63
2018-10-02T07:44:08.468Z,13.27
2018-10-02T07:46:36.950Z,33.03
2018-10-02T07:49:05.420Z,18.23
2018-10-02T07:51:34.641Z,13.87
2018-10-02T07:54:03.099Z,18.27
2018-10-02T07:56:31.636Z,16.80
2018-10-02T07:59:00.114Z,10.13
2018-10-02T08:01:28.592Z,6.63
2018-10-02T08:03:56.993Z,10.10
2018-10-02T08:06:25.505Z,10.53
2018-10-02T08:08:53.938Z,8.13
2018-10-02T08:11:22.429Z,10.40
2018-10-02T08:13:50.760Z,9.13
2018-10-02T08:16:19.233Z,7.37
2018-10-02T08:18:47.657Z,13.80
2018-10-02T08:21:16.163Z,8.80
2018-10-02T08:23:44.631Z,13.00
2018-10-02T08:26:13.035Z,11.43
2018-10-02T08:28:41.539Z,13.00
2018-10-02T08:31:09.956Z,13.67
2018-10-02T08:33:39.988Z,10.80
2018-10-02T08:36:08.671Z,8.70
2018-10-02T08:38:37.063Z,18.60
2018-10-02T08:41:05.457Z,11.50
2018-10-02T08:43:34.074Z,18.03
2018-10-02T08:46:02.431Z,12.97
2018-10-02T08:48:30.828Z,7.47
2018-10-02T08:50:59.400Z,7.83
2018-10-02T08:53:28.559Z,15.63
2018-10-02T08:55:56.932Z,8.80
2018-10-02T08:58:25.454Z,7.40
2018-10-02T09:00:54.211Z,8.67
2018-10-02T09:03:22.684Z,11.50
2018-10-02T09:05:51.115Z,12.13
2018-10-02T09:08:19.560Z,9.83
2018-10-02T09:10:48.042Z,17.67
2018-10-02T09:13:16.443Z,8.57
2018-10-02T09:15:44.890Z,11.60
2018-10-02T09:18:13.275Z,13.93
2018-10-02T09:20:41.860Z,8.70
2018-10-02T09:23:10.251Z,18.23
2018-10-02T09:25:38.670Z,9.17
2018-10-02T09:28:07.338Z,8.10
2018-10-02T09:30:42.002Z,14.10
2018-10-02T09:33:15.580Z,9.07
2018-10-02T09:35:49.247Z,14.00
2018-10-02T09:38:23.048Z,15.50
2018-10-02T09:40:56.915Z,13.33
2018-10-02T09:43:30.616Z,14.93
2018-10-02T09:45:59.716Z,9.50
2018-10-02T09:48:28.111Z,9.30
2018-10-02T09:50:56.529Z,13.27
2018-10-02T09:53:24.950Z,14.50
2018-10-02T09:55:53.390Z,6.30
2018-10-02T09:58:21.814Z,11.80
2018-10-02T10:00:55.493Z,13.40
2018-10-02T10:03:23.837Z,8.70
2018-10-02T10:05:52.253Z,16.13
2018-10-02T10:08:20.661Z,8.93
2018-10-02T10:10:50.025Z,13.60
2018-10-02T10:13:18.470Z,7.33
2018-10-02T10:15:46.945Z,8.40
2018-10-02T10:18:16.034Z,14.30
2018-10-02T10:20:44.631Z,11.80
2018-10-02T10:23:13.069Z,11.63
2018-10-02T10:25:41.505Z,11.90
2018-10-02T10:28:09.944Z,9.00
2018-10-02T10:30:38.411Z,8.97
2018-10-02T10:33:06.818Z,5.63
2018-10-02T10:35:35.233Z,5.67
2018-10-02T10:38:03.673Z,6.90
2018-10-02T10:40:32.136Z,9.57
2018-10-02T10:43:00.522Z,8.03
2018-10-02T10:45:29.210Z,5.83
2018-10-02T10:47:57.674Z,5.13
2018-10-02T10:50:26.171Z,9.40
2018-10-02T10:52:54.805Z,5.37
2018-10-02T10:55:26.300Z,6.00
2018-10-02T10:57:54.777Z,6.43
2018-10-02T11:00:24.277Z,4.93
2018-10-02T11:02:53.555Z,4.67
2018-10-02T11:05:22.012Z,5.60
2018-10-02T11:07:52.101Z,4.70
2018-10-02T11:10:20.692Z,4.83
2018-10-02T11:12:49.957Z,8.23
2018-10-02T11:15:19.532Z,7.97
2018-10-02T11:17:47.921Z,7.03
2018-10-02T11:20:19.155Z,5.40
2018-10-02T11:22:47.567Z,8.73
2018-10-02T11:25:15.998Z,6.37
2018-10-02T11:27:44.457Z,8.50
2018-10-02T11:30:13.276Z,6.77
2018-10-02T11:32:41.698Z,4.17
2018-10-02T11:35:10.255Z,7.50
2018-10-02T11:37:38.996Z,5.93
2018-10-02T11:40:07.482Z,3.60
2018-10-02T11:42:35.947Z,5.23
2018-10-02T11:45:04.548Z,3.47
2018-10-02T11:47:32.947Z,6.03
2018-10-02T11:50:01.431Z,6.60
2018-10-02T11:52:29.931Z,4.03
2018-10-02T11:54:58.323Z,6.93
2018-10-02T11:57:28.373Z,4.43
2018-10-02T11:59:56.816Z,9.67
2018-10-02T12:02:25.469Z,5.93
2018-10-02T12:04:53.881Z,5.03
2018-10-02T12:07:22.329Z,4.50
2018-10-02T12:09:50.757Z,6.83
2018-10-02T12:12:19.205Z,6.67
2018-10-02T12:14:47.715Z,5.07
2018-10-02T12:17:16.096Z,3.70
2018-10-02T12:19:44.579Z,7.30
2018-10-02T12:22:12.982Z,5.23
2018-10-02T12:24:41.410Z,6.83
2018-10-02T12:27:10.094Z,3.53
2018-10-02T12:29:38.555Z,6.00
2018-10-02T12:32:07.082Z,5.90
2018-10-02T12:34:35.512Z,4.97
2018-10-02T12:37:03.949Z,6.57
2018-10-02T12:39:32.359Z,4.50
2018-10-02T12:42:00.758Z,7.10
2018-10-02T12:44:29.308Z,4.33
2018-10-02T12:46:57.755Z,3.33
2018-10-02T12:49:26.366Z,5.00
2018-10-02T12:51:54.811Z,4.87
2018-10-02T12:54:23.250Z,3.50
2018-10-02T12:56:51.688Z,4.80
2018-10-02T12:59:20.166Z,6.30
2018-10-02T13:01:48.628Z,3.67
2018-10-02T13:04:17.133Z,5.53
2018-10-02T13:06:45.578Z,4.70
2018-10-02T13:09:14.331Z,4.60
2018-10-02T13:11:42.756Z,5.10
2018-10-02T13:14:11.185Z,8.27
2018-10-02T13:16:39.639Z,6.30
2018-10-02T13:19:08.059Z,5.70
2018-10-02T13:21:36.529Z,5.63
2018-10-02T13:24:05.009Z,8.03
2018-10-02T13:26:33.498Z,6.73
2018-10-02T13:29:01.992Z,8.60
2018-10-02T13:31:30.561Z,7.87
2018-10-02T13:33:59.065Z,8.43
2018-10-02T13:36:27.499Z,5.07
2018-10-02T13:38:55.924Z,8.10
2018-10-02T13:41:24.370Z,7.37
2018-10-02T13:43:52.829Z,6.33
2018-10-02T13:46:21.280Z,6.60
2018-10-02T13:48:49.741Z,7.20
2018-10-02T13:51:18.226Z,5.97
2018-10-02T13:53:46.696Z,9.30
2018-10-02T13:56:15.180Z,9.20
2018-10-02T13:58:43.660Z,7.63
2018-10-02T14:01:12.145Z,8.03
2018-10-02T14:03:40.546Z,10.30
2018-10-02T14:06:09.923Z,9.90
2018-10-02T14:08:39.096Z,8.67
2018-10-02T14:11:09.791Z,8.33
2018-10-02T14:13:38.598Z,8.77
2018-10-02T14:16:07.180Z,11.10
2018-10-02T14:18:35.606Z,13.93
2018-10-02T14:21:04.042Z,12.50
2018-10-02T14:23:32.509Z,8.97
2018-10-02T14:26:02.182Z,9.43
2018-10-02T14:28:30.740Z,11.63
2018-10-02T14:30:59.191Z,11.27
2018-10-02T14:33:27.843Z,10.67
2018-10-02T14:35:56.279Z,9.43
2018-10-02T14:38:25.393Z,10.90
2018-10-02T14:40:53.809Z,10.83
2018-10-02T14:43:22.712Z,21.00
2018-10-02T14:45:51.403Z,16.03
2018-10-02T14:48:19.812Z,17.07
2018-10-02T14:50:48.353Z,13.63
2018-10-02T14:53:17.844Z,15.10
2018-10-02T14:55:46.365Z,16.70
2018-10-02T14:58:14.797Z,17.40
2018-10-02T15:00:43.255Z,15.47
2018-10-02T15:03:11.696Z,14.77
2018-10-02T15:05:40.128Z,15.93
2018-10-02T15:08:08.605Z,15.97
2018-10-02T15:10:37.099Z,14.10
2018-10-02T15:13:05.577Z,17.13
2018-10-02T15:15:34.036Z,28.53
2018-10-02T15:18:03.075Z,19.73
2018-10-02T15:20:31.601Z,14.63
2018-10-02T15:23:00.087Z,24.43
2018-10-02T15:25:28.508Z,19.83
2018-10-02T15:27:56.998Z,15.80
2018-10-02T15:30:25.518Z,18.80
2018-10-02T15:32:54.067Z,15.60
2018-10-02T15:35:22.519Z,19.27
2018-10-02T15:37:51.307Z,20.27
2018-10-02T15:40:19.661Z,17.27
2018-10-02T15:42:48.263Z,22.37
2018-10-02T15:45:16.815Z,20.90
2018-10-02T15:47:45.383Z,24.27
2018-10-02T15:50:13.837Z,20.73
2018-10-02T15:52:43.490Z,26.33
2018-10-02T15:55:11.929Z,25.63
2018-10-02T15:57:40.521Z,29.27
2018-10-02T16:00:09.012Z,21.83
2018-10-02T16:02:37.514Z,20.30
2018-10-02T16:05:06.054Z,23.43
2018-10-02T16:07:34.547Z,25.03
2018-10-02T16:10:02.981Z,17.00
2018-10-02T16:12:31.480Z,16.40
2018-10-02T16:14:59.909Z,20.77
2018-10-02T16:17:28.428Z,16.27
2018-10-02T16:19:56.873Z,18.03
2018-10-02T16:22:25.379Z,27.83
2018-10-02T16:24:53.832Z,19.10
2018-10-02T16:27:22.212Z,25.73
2018-10-02T16:29:50.649Z,19.63
2018-10-02T16:32:19.128Z,22.17
2018-10-02T16:34:49.766Z,22.20
2018-10-02T16:37:16.082Z,20.30
2018-10-02T16:39:44.508Z,21.07
2018-10-02T16:42:13.389Z,17.83
2018-10-02T16:44:41.870Z,19.53
2018-10-02T16:47:10.416Z,15.57
2018-10-02T16:49:38.724Z,16.70
2018-10-02T16:52:07.416Z,14.77
2018-10-02T16:54:36.042Z,19.57
2018-10-02T16:57:04.371Z,23.70
2018-10-02T16:59:32.767Z,17.67
2018-10-02T17:02:01.216Z,17.63
2018-10-02T17:04:29.777Z,13.33
2018-10-02T17:06:58.775Z,17.77
2018-10-02T17:09:27.293Z,16.00
2018-10-02T17:11:55.723Z,13.67
2018-10-02T17:14:24.869Z,15.17
2018-10-02T17:16:53.316Z,14.27
2018-10-02T17:19:22.963Z,21.53
2018-10-02T17:21:51.430Z,23.37
2018-10-02T17:24:19.869Z,17.20
2018-10-02T17:26:48.280Z,18.87
2018-10-02T17:29:16.731Z,22.47
2018-10-02T17:31:45.152Z,21.77
2018-10-02T17:34:13.619Z,20.67
2018-10-02T17:36:42.116Z,23.30
2018-10-02T17:39:11.588Z,19.97
2018-10-02T17:41:40.248Z,24.47
2018-10-02T17:44:08.687Z,16.27
2018-10-02T17:46:37.196Z,19.47
2018-10-02T17:49:05.779Z,18.47
2018-10-02T17:51:34.122Z,46.13
2018-10-02T17:54:02.579Z,21.83
2018-10-02T17:56:32.241Z,16.50
2018-10-02T17:59:00.677Z,19.00
2018-10-02T18:01:29.130Z,22.13
2018-10-02T18:03:57.557Z,13.77
2018-10-02T18:06:25.987Z,16.53
2018-10-02T18:08:54.528Z,17.73
2018-10-02T18:11:23.134Z,22.97
2018-10-02T18:13:51.591Z,26.87
2018-10-02T18:16:20.017Z,19.67
2018-10-02T18:18:48.419Z,17.30
2018-10-02T18:21:16.873Z,17.30
2018-10-02T18:23:45.275Z,19.37
2018-10-02T18:26:13.713Z,17.20
2018-10-02T18:28:42.158Z,23.87
2018-10-02T18:31:10.567Z,18.27
2018-10-02T18:33:39.045Z,14.97
2018-10-02T18:36:07.484Z,21.93
2018-10-02T18:38:36.087Z,20.97
2018-10-02T18:41:04.613Z,21.07
2018-10-02T18:43:33.105Z,18.90
2018-10-02T18:46:01.592Z,20.53
2018-10-02T18:48:30.116Z,20.23
2018-10-02T18:50:58.595Z,17.40
2018-10-02T18:53:27.099Z,19.77
2018-10-02T18:55:55.541Z,16.70
2018-10-02T18:58:24.000Z,18.53
2018-10-02T19:00:52.453Z,17.30
2018-10-02T19:03:20.881Z,14.10
2018-10-02T19:05:49.399Z,14.80
2018-10-02T19:08:21.970Z,17.33
2018-10-02T19:10:50.409Z,12.33
2018-10-02T19:13:18.859Z,16.87
2018-10-02T19:15:52.449Z,23.73
2018-10-02T19:18:20.927Z,27.43
2018-10-02T19:20:51.529Z,22.43
2018-10-02T19:23:20.077Z,18.87
2018-10-02T19:25:53.783Z,22.23
2018-10-02T19:28:22.287Z,22.83
2018-10-02T19:30:56.022Z,22.93
2018-10-02T19:33:24.605Z,16.43
2018-10-02T19:35:53.305Z,18.57
2018-10-02T19:38:27.109Z,27.27
2018-10-02T19:40:55.901Z,19.27
2018-10-02T19:43:24.416Z,16.33
2018-10-02T19:45:58.151Z,17.60
2018-10-02T19:48:26.592Z,14.93
2018-10-02T19:51:00.288Z,16.70
2018-10-02T19:53:28.753Z,16.10
2018-10-02T19:55:57.267Z,29.00
2018-10-02T19:58:25.765Z,18.03
2018-10-02T20:00:54.183Z,20.63
2018-10-02T20:03:22.595Z,18.83
2018-10-02T20:05:51.888Z,21.20
2018-10-02T20:08:20.347Z,21.20
2018-10-02T20:10:48.800Z,21.40
2018-10-02T20:13:18.175Z,17.20
2018-10-02T20:15:46.594Z,18.03
2018-10-02T20:18:15.025Z,18.60
2018-10-02T20:20:43.624Z,19.50
2018-10-02T20:23:12.108Z,22.17
2018-10-02T20:25:40.679Z,18.27
2018-10-02T20:28:09.100Z,16.73
2018-10-02T20:30:37.672Z,18.53
2018-10-02T20:33:06.239Z,14.63
2018-10-02T20:35:34.672Z,13.33
2018-10-02T20:38:03.115Z,17.60
2018-10-02T20:40:31.642Z,15.20
2018-10-02T20:43:00.086Z,17.27
2018-10-02T20:45:28.615Z,18.87
2018-10-02T20:47:57.096Z,16.10
2018-10-02T20:50:25.536Z,26.03
2018-10-02T20:52:54.339Z,14.80
2018-10-02T20:55:23.026Z,23.07
2018-10-02T20:57:51.669Z,21.87
2018-10-02T21:00:20.286Z,26.70
2018-10-02T21:02:48.753Z,15.87
2018-10-02T21:05:17.200Z,20.57
2018-10-02T21:07:45.652Z,16.63
2018-10-02T21:10:14.065Z,18.07
2018-10-02T21:12:42.658Z,18.10
2018-10-02T21:15:11.172Z,19.10
2018-10-02T21:17:39.540Z,19.17
2018-10-02T21:20:08.224Z,22.03
2018-10-02T21:22:36.658Z,27.13
2018-10-02T21:25:05.371Z,22.73
2018-10-02T21:27:33.815Z,15.47
2018-10-02T21:30:02.309Z,19.23
2018-10-02T21:32:30.702Z,19.53
2018-10-02T21:34:59.084Z,18.13
2018-10-02T21:37:27.533Z,13.90
2018-10-02T21:39:56.044Z,19.40
2018-10-02T21:42:24.460Z,14.03
2018-10-02T21:44:52.917Z,12.50
2018-10-02T21:47:21.371Z,14.83
2018-10-02T21:49:49.842Z,13.30
2018-10-02T21:52:18.278Z,10.80
2018-10-02T21:54:46.798Z,14.63
2018-10-02T21:57:15.260Z,14.37
2018-10-02T21:59:43.725Z,14.77
2018-10-02T22:02:12.188Z,15.30
2018-10-02T22:04:40.851Z,18.50
2018-10-02T22:07:09.771Z,16.20
2018-10-02T22:09:38.195Z,17.27
2018-10-02T22:12:06.738Z,15.70
2018-10-02T22:14:35.273Z,13.90
2018-10-02T22:17:03.852Z,19.70
2018-10-02T22:19:32.260Z,17.70
2018-10-02T22:22:01.325Z,12.50
2018-10-02T22:24:29.769Z,14.90
2018-10-02T22:26:58.160Z,13.17
2018-10-02T22:29:26.645Z,13.53
2018-10-02T22:31:55.096Z,19.30
2018-10-02T22:34:23.500Z,15.37
2018-10-02T22:36:51.926Z,18.33
2018-10-02T22:39:20.338Z,12.67
2018-10-02T22:41:48.797Z,17.07
2018-10-02T22:44:17.239Z,21.57
2018-10-02T22:46:45.643Z,20.97
2018-10-02T22:49:14.084Z,18.23
2018-10-02T22:51:42.533Z,11.30
2018-10-02T22:54:11.027Z,11.37
2018-10-02T22:56:39.459Z,13.30
2018-10-02T22:59:07.933Z,14.33
2018-10-02T23:01:36.316Z,12.50
2018-10-02T23:04:04.809Z,16.60
2018-10-02T23:06:33.377Z,20.47
2018-10-02T23:09:01.844Z,12.00
2018-10-02T23:11:30.207Z,12.20
2018-10-02T23:13:58.644Z,11.80
2018-10-02T23:16:27.052Z,11.10
2018-10-02T23:18:55.448Z,12.40
2018-10-02T23:21:24.227Z,16.43
2018-10-02T23:23:52.657Z,14.63
2018-10-02T23:26:21.228Z,16.40
2018-10-02T23:28:49.609Z,18.83
2018-10-02T23:31:18.119Z,17.33
2018-10-02T23:33:46.535Z,17.00
2018-10-02T23:36:14.984Z,20.40
2018-10-02T23:38:43.453Z,15.90
2018-10-02T23:41:11.879Z,18.93
2018-10-02T23:43:40.293Z,17.83
2018-10-02T23:46:08.736Z,17.77
2018-10-02T23:48:37.234Z,23.63
2018-10-02T23:51:06.066Z,18.63
2018-10-02T23:53:34.487Z,13.90
2018-10-02T23:56:02.946Z,13.37
2018-10-02T23:58:31.334Z,15.23
